sensor_id;sensor_type;location;lat;lon;timestamp;temperature;humidity
7307;DHT22;3694;48.732;9.248;2023-07-16T09:39:22;28.30;63.30
7307;DHT22;3694;48.732;9.248;2023-07-16T09:41:48;27.90;61.90
7307;DHT22;3694;48.732;9.248;2023-07-16T09:44:15;28.30;64.50
7307;DHT22;3694;48.732;9.248;2023-07-16T09:46:41;28.70;61.70
7307;DHT22;3694;48.732;9.248;2023-07-16T09:49:07;28.80;62.90
7307;DHT22;3694;48.732;9.248;2023-07-16T09:51:35;28.80;62.00
7307;DHT22;3694;48.732;9.248;2023-07-16T09:54:01;28.20;59.80
7307;DHT22;3694;48.732;9.248;2023-07-16T09:56:35;27.50;61.30
7307;DHT22;3694;48.732;9.248;2023-07-16T09:59:01;27.90;62.50
7307;DHT22;3694;48.732;9.248;2023-07-16T10:01:29;28.30;62.00
7307;DHT22;3694;48.732;9.248;2023-07-16T10:03:54;29.00;62.70
7307;DHT22;3694;48.732;9.248;2023-07-16T10:06:20;28.70;60.60
7307;DHT22;3694;48.732;9.248;2023-07-16T10:08:49;28.40;61.20
7307;DHT22;3694;48.732;9.248;2023-07-16T10:11:16;27.90;60.90
7307;DHT22;3694;48.732;9.248;2023-07-16T10:13:42;27.90;60.00
7307;DHT22;3694;48.732;9.248;2023-07-16T10:16:08;27.80;59.40
7307;DHT22;3694;48.732;9.248;2023-07-16T10:18:36;27.90;58.00
7307;DHT22;3694;48.732;9.248;2023-07-16T10:21:03;27.80;60.00
7307;DHT22;3694;48.732;9.248;2023-07-16T10:23:42;28.10;59.90
7307;DHT22;3694;48.732;9.248;2023-07-16T10:26:11;28.20;60.10
7307;DHT22;3694;48.732;9.248;2023-07-16T10:28:37;28.90;59.20
7307;DHT22;3694;48.732;9.248;2023-07-16T10:31:03;28.60;58.30
7307;DHT22;3694;48.732;9.248;2023-07-16T10:33:28;28.60;59.00
7307;DHT22;3694;48.732;9.248;2023-07-16T10:35:57;28.80;59.00
7307;DHT22;3694;48.732;9.248;2023-07-16T10:38:24;29.20;58.40
7307;DHT22;3694;48.732;9.248;2023-07-16T10:40:50;29.00;57.30
7307;DHT22;3694;48.732;9.248;2023-07-16T10:43:15;29.30;58.20
7307;DHT22;3694;48.732;9.248;2023-07-16T10:45:41;29.40;58.10
7307;DHT22;3694;48.732;9.248;2023-07-16T10:48:07;28.90;57.30
7307;DHT22;3694;48.732;9.248;2023-07-16T10:50:33;28.70;57.00
7307;DHT22;3694;48.732;9.248;2023-07-16T10:53:02;28.60;58.00
7307;DHT22;3694;48.732;9.248;2023-07-16T10:55:29;28.30;57.20
7307;DHT22;3694;48.732;9.248;2023-07-16T10:57:55;28.80;57.80
7307;DHT22;3694;48.732;9.248;2023-07-16T11:00:22;28.90;57.70
7307;DHT22;3694;48.732;9.248;2023-07-16T11:02:50;28.30;55.80
7307;DHT22;3694;48.732;9.248;2023-07-16T11:05:16;28.00;57.60
7307;DHT22;3694;48.732;9.248;2023-07-16T11:07:46;27.50;57.90
7307;DHT22;3694;48.732;9.248;2023-07-16T11:10:12;27.30;59.40
7307;DHT22;3694;48.732;9.248;2023-07-16T11:12:38;26.80;57.10
7307;DHT22;3694;48.732;9.248;2023-07-16T11:15:03;27.10;58.40
7307;DHT22;3694;48.732;9.248;2023-07-16T11:17:29;27.40;58.60
7307;DHT22;3694;48.732;9.248;2023-07-16T11:19:55;28.20;59.00
7307;DHT22;3694;48.732;9.248;2023-07-16T11:22:25;28.70;57.80
7307;DHT22;3694;48.732;9.248;2023-07-16T11:24:53;29.30;57.10
7307;DHT22;3694;48.732;9.248;2023-07-16T11:27:26;29.00;56.60
7307;DHT22;3694;48.732;9.248;2023-07-16T11:29:53;29.30;56.40
7307;DHT22;3694;48.732;9.248;2023-07-16T11:32:35;29.70;56.00
7307;DHT22;3694;48.732;9.248;2023-07-16T11:35:02;29.40;54.90
7307;DHT22;3694;48.732;9.248;2023-07-16T11:37:29;29.60;54.50
7307;DHT22;3694;48.732;9.248;2023-07-16T11:39:59;29.50;54.10
7307;DHT22;3694;48.732;9.248;2023-07-16T11:42:34;29.10;55.40
7307;DHT22;3694;48.732;9.248;2023-07-16T11:45:01;29.30;55.50
7307;DHT22;3694;48.732;9.248;2023-07-16T11:47:27;28.60;54.60
7307;DHT22;3694;48.732;9.248;2023-07-16T11:49:53;28.30;56.70
7307;DHT22;3694;48.732;9.248;2023-07-16T11:52:21;28.20;55.00
7307;DHT22;3694;48.732;9.248;2023-07-16T11:54:48;28.30;55.70
7307;DHT22;3694;48.732;9.248;2023-07-16T11:57:14;28.30;55.70
7307;DHT22;3694;48.732;9.248;2023-07-16T11:59:40;28.70;56.60
7307;DHT22;3694;48.732;9.248;2023-07-16T12:02:06;29.30;56.80
7307;DHT22;3694;48.732;9.248;2023-07-16T12:04:32;29.90;55.40
7307;DHT22;3694;48.732;9.248;2023-07-16T12:06:57;30.80;54.30
7307;DHT22;3694;48.732;9.248;2023-07-16T12:09:23;30.50;54.40
7307;DHT22;3694;48.732;9.248;2023-07-16T12:11:48;30.40;53.90
7307;DHT22;3694;48.732;9.248;2023-07-16T12:14:14;30.30;55.80
7307;DHT22;3694;48.732;9.248;2023-07-16T12:16:40;30.20;53.80
7307;DHT22;3694;48.732;9.248;2023-07-16T12:19:07;29.70;52.60
7307;DHT22;3694;48.732;9.248;2023-07-16T12:21:32;29.70;55.50
7307;DHT22;3694;48.732;9.248;2023-07-16T12:23:58;29.70;54.70
7307;DHT22;3694;48.732;9.248;2023-07-16T12:26:23;29.90;55.80
7307;DHT22;3694;48.732;9.248;2023-07-16T12:28:49;29.90;54.50
7307;DHT22;3694;48.732;9.248;2023-07-16T12:31:15;29.90;54.40
7307;DHT22;3694;48.732;9.248;2023-07-16T12:33:42;30.10;54.70
7307;DHT22;3694;48.732;9.248;2023-07-16T12:36:08;30.40;54.80
7307;DHT22;3694;48.732;9.248;2023-07-16T12:38:33;30.50;53.90
7307;DHT22;3694;48.732;9.248;2023-07-16T12:40:59;30.30;53.50
7307;DHT22;3694;48.732;9.248;2023-07-16T12:43:25;29.90;53.50
7307;DHT22;3694;48.732;9.248;2023-07-16T12:45:50;29.70;54.60
7307;DHT22;3694;48.732;9.248;2023-07-16T12:48:16;29.80;53.40
7307;DHT22;3694;48.732;9.248;2023-07-16T12:50:41;29.50;53.10
7307;DHT22;3694;48.732;9.248;2023-07-16T12:53:17;29.90;56.20
7307;DHT22;3694;48.732;9.248;2023-07-16T12:55:42;30.20;54.80
7307;DHT22;3694;48.732;9.248;2023-07-16T12:58:08;30.20;54.80
7307;DHT22;3694;48.732;9.248;2023-07-16T13:00:34;30.40;55.20
7307;DHT22;3694;48.732;9.248;2023-07-16T13:03:00;30.20;53.30
7307;DHT22;3694;48.732;9.248;2023-07-16T13:05:26;30.20;54.10
7307;DHT22;3694;48.732;9.248;2023-07-16T13:07:54;30.30;54.70
7307;DHT22;3694;48.732;9.248;2023-07-16T13:10:19;29.90;54.60
7307;DHT22;3694;48.732;9.248;2023-07-16T13:12:45;30.30;55.20
7307;DHT22;3694;48.732;9.248;2023-07-16T13:15:11;30.20;54.90
7307;DHT22;3694;48.732;9.248;2023-07-16T13:17:36;30.10;53.00
7307;DHT22;3694;48.732;9.248;2023-07-16T13:20:03;30.00;56.00
7307;DHT22;3694;48.732;9.248;2023-07-16T13:22:30;30.00;54.80
7307;DHT22;3694;48.732;9.248;2023-07-16T13:24:55;29.90;54.40
7307;DHT22;3694;48.732;9.248;2023-07-16T13:27:23;30.40;56.10
7307;DHT22;3694;48.732;9.248;2023-07-16T13:29:48;30.20;53.10
7307;DHT22;3694;48.732;9.248;2023-07-16T13:32:14;30.10;53.60
7307;DHT22;3694;48.732;9.248;2023-07-16T13:34:40;30.30;55.60
7307;DHT22;3694;48.732;9.248;2023-07-16T13:37:06;30.00;52.90
7307;DHT22;3694;48.732;9.248;2023-07-16T13:39:31;29.50;53.40
7307;DHT22;3694;48.732;9.248;2023-07-16T13:41:57;29.40;53.80
7307;DHT22;3694;48.732;9.248;2023-07-16T13:44:22;28.60;53.50
7307;DHT22;3694;48.732;9.248;2023-07-16T13:46:48;28.40;54.80
7307;DHT22;3694;48.732;9.248;2023-07-16T13:49:13;28.30;56.60
7307;DHT22;3694;48.732;9.248;2023-07-16T13:51:39;28.20;56.20
7307;DHT22;3694;48.732;9.248;2023-07-16T13:54:05;27.50;55.00
7307;DHT22;3694;48.732;9.248;2023-07-16T13:56:31;27.40;56.80
7307;DHT22;3694;48.732;9.248;2023-07-16T13:58:56;27.20;55.80
7307;DHT22;3694;48.732;9.248;2023-07-16T14:01:22;26.90;56.10
7307;DHT22;3694;48.732;9.248;2023-07-16T14:03:48;26.60;56.20
7307;DHT22;3694;48.732;9.248;2023-07-16T14:06:14;26.40;55.70
7307;DHT22;3694;48.732;9.248;2023-07-16T14:08:40;26.00;55.20
7307;DHT22;3694;48.732;9.248;2023-07-16T14:11:05;25.80;56.00
7307;DHT22;3694;48.732;9.248;2023-07-16T14:13:31;25.60;56.40
7307;DHT22;3694;48.732;9.248;2023-07-16T14:15:56;25.50;56.40
7307;DHT22;3694;48.732;9.248;2023-07-16T14:18:22;25.50;56.10
7307;DHT22;3694;48.732;9.248;2023-07-16T14:20:47;25.50;57.00
7307;DHT22;3694;48.732;9.248;2023-07-16T14:23:13;25.70;56.70
7307;DHT22;3694;48.732;9.248;2023-07-16T14:25:39;25.70;57.70
7307;DHT22;3694;48.732;9.248;2023-07-16T14:28:04;25.70;57.40
7307;DHT22;3694;48.732;9.248;2023-07-16T14:30:30;25.80;57.70
7307;DHT22;3694;48.732;9.248;2023-07-16T14:32:56;25.70;57.30
7307;DHT22;3694;48.732;9.248;2023-07-16T14:35:22;25.80;57.00
7307;DHT22;3694;48.732;9.248;2023-07-16T14:37:53;25.80;56.70
7307;DHT22;3694;48.732;9.248;2023-07-16T14:40:19;25.70;56.40
7307;DHT22;3694;48.732;9.248;2023-07-16T14:42:45;25.70;55.70
7307;DHT22;3694;48.732;9.248;2023-07-16T14:45:11;25.70;56.10
7307;DHT22;3694;48.732;9.248;2023-07-16T14:47:36;25.70;56.00
7307;DHT22;3694;48.732;9.248;2023-07-16T14:50:02;26.50;56.20
7307;DHT22;3694;48.732;9.248;2023-07-16T14:52:28;27.70;56.30
7307;DHT22;3694;48.732;9.248;2023-07-16T14:54:54;28.00;54.30
7307;DHT22;3694;48.732;9.248;2023-07-16T14:57:19;28.30;54.10
7307;DHT22;3694;48.732;9.248;2023-07-16T14:59:45;28.30;53.90
7307;DHT22;3694;48.732;9.248;2023-07-16T15:02:10;27.80;54.00
7307;DHT22;3694;48.732;9.248;2023-07-16T15:04:37;27.80;54.20
7307;DHT22;3694;48.732;9.248;2023-07-16T15:07:04;27.60;54.10
7307;DHT22;3694;48.732;9.248;2023-07-16T15:09:30;27.10;54.10
7307;DHT22;3694;48.732;9.248;2023-07-16T15:11:55;26.70;53.90
7307;DHT22;3694;48.732;9.248;2023-07-16T15:14:21;26.30;54.40
7307;DHT22;3694;48.732;9.248;2023-07-16T15:16:47;26.10;56.30
7307;DHT22;3694;48.732;9.248;2023-07-16T15:19:12;26.00;55.40
7307;DHT22;3694;48.732;9.248;2023-07-16T15:21:38;26.10;56.70
7307;DHT22;3694;48.732;9.248;2023-07-16T15:24:04;25.90;57.40
7307;DHT22;3694;48.732;9.248;2023-07-16T15:26:30;25.80;57.70
7307;DHT22;3694;48.732;9.248;2023-07-16T15:28:57;25.70;57.10
7307;DHT22;3694;48.732;9.248;2023-07-16T15:31:23;25.90;55.90
7307;DHT22;3694;48.732;9.248;2023-07-16T15:33:54;26.30;57.30
7307;DHT22;3694;48.732;9.248;2023-07-16T15:36:20;26.80;54.30
7307;DHT22;3694;48.732;9.248;2023-07-16T15:38:46;27.20;54.90
7307;DHT22;3694;48.732;9.248;2023-07-16T15:41:13;27.60;55.60
7307;DHT22;3694;48.732;9.248;2023-07-16T15:43:40;27.70;56.00
7307;DHT22;3694;48.732;9.248;2023-07-16T15:46:06;27.50;56.40
7307;DHT22;3694;48.732;9.248;2023-07-16T15:48:31;27.20;56.40
7307;DHT22;3694;48.732;9.248;2023-07-16T15:50:57;26.90;56.60
7307;DHT22;3694;48.732;9.248;2023-07-16T15:53:26;26.60;59.10
7307;DHT22;3694;48.732;9.248;2023-07-16T15:55:53;26.40;57.90
7307;DHT22;3694;48.732;9.248;2023-07-16T15:58:19;26.20;56.50
7307;DHT22;3694;48.732;9.248;2023-07-16T16:00:45;26.00;59.60
7307;DHT22;3694;48.732;9.248;2023-07-16T16:03:12;26.00;58.70
7307;DHT22;3694;48.732;9.248;2023-07-16T16:05:39;26.00;59.20
7307;DHT22;3694;48.732;9.248;2023-07-16T16:10:39;26.30;57.80
7307;DHT22;3694;48.732;9.248;2023-07-16T16:13:04;26.60;58.90
7307;DHT22;3694;48.732;9.248;2023-07-16T16:15:30;26.60;58.10
7307;DHT22;3694;48.732;9.248;2023-07-16T16:17:55;26.30;58.70
7307;DHT22;3694;48.732;9.248;2023-07-16T16:20:21;26.40;59.70
7307;DHT22;3694;48.732;9.248;2023-07-16T16:22:46;26.30;58.30
7307;DHT22;3694;48.732;9.248;2023-07-16T16:25:12;26.10;58.70
7307;DHT22;3694;48.732;9.248;2023-07-16T16:27:38;26.00;60.30
7307;DHT22;3694;48.732;9.248;2023-07-16T16:30:04;25.80;61.20
7307;DHT22;3694;48.732;9.248;2023-07-16T16:32:31;25.60;60.90
7307;DHT22;3694;48.732;9.248;2023-07-16T16:34:56;25.20;60.00
7307;DHT22;3694;48.732;9.248;2023-07-16T16:37:22;25.00;60.70
7307;DHT22;3694;48.732;9.248;2023-07-16T16:39:49;24.80;61.50
7307;DHT22;3694;48.732;9.248;2023-07-16T16:42:15;24.30;61.90
7307;DHT22;3694;48.732;9.248;2023-07-16T16:44:42;24.20;63.30
7307;DHT22;3694;48.732;9.248;2023-07-16T16:47:07;24.10;62.90
7307;DHT22;3694;48.732;9.248;2023-07-16T16:49:33;24.00;62.20
7307;DHT22;3694;48.732;9.248;2023-07-16T16:52:00;23.90;62.40
7307;DHT22;3694;48.732;9.248;2023-07-16T16:54:25;24.20;62.20
7307;DHT22;3694;48.732;9.248;2023-07-16T16:56:51;24.10;63.00
7307;DHT22;3694;48.732;9.248;2023-07-16T16:59:17;24.00;61.60
7307;DHT22;3694;48.732;9.248;2023-07-16T17:01:42;23.90;62.50
7307;DHT22;3694;48.732;9.248;2023-07-16T17:04:08;23.60;62.60
7307;DHT22;3694;48.732;9.248;2023-07-16T17:06:33;23.30;62.40
7307;DHT22;3694;48.732;9.248;2023-07-16T17:08:59;23.50;62.20
7307;DHT22;3694;48.732;9.248;2023-07-16T17:11:25;23.40;62.20
7307;DHT22;3694;48.732;9.248;2023-07-16T17:13:50;23.40;62.10
7307;DHT22;3694;48.732;9.248;2023-07-16T17:16:16;23.30;62.50
7307;DHT22;3694;48.732;9.248;2023-07-16T17:18:41;23.30;62.40
7307;DHT22;3694;48.732;9.248;2023-07-16T17:21:07;23.30;63.00
7307;DHT22;3694;48.732;9.248;2023-07-16T17:23:32;23.10;63.10
7307;DHT22;3694;48.732;9.248;2023-07-16T17:25:59;23.00;63.00
7307;DHT22;3694;48.732;9.248;2023-07-16T17:28:25;22.90;63.10
7307;DHT22;3694;48.732;9.248;2023-07-16T17:30:50;22.90;61.90
7307;DHT22;3694;48.732;9.248;2023-07-16T17:33:17;22.90;63.10
7307;DHT22;3694;48.732;9.248;2023-07-16T17:35:43;22.80;62.60
7307;DHT22;3694;48.732;9.248;2023-07-16T17:38:08;23.00;64.10
7307;DHT22;3694;48.732;9.248;2023-07-16T17:40:34;22.70;63.00
7307;DHT22;3694;48.732;9.248;2023-07-16T17:42:59;22.60;63.00
7307;DHT22;3694;48.732;9.248;2023-07-16T17:45:25;22.70;62.90
7307;DHT22;3694;48.732;9.248;2023-07-16T17:47:51;22.60;64.50
7307;DHT22;3694;48.732;9.248;2023-07-16T17:50:17;22.50;62.20
7307;DHT22;3694;48.732;9.248;2023-07-16T17:52:42;22.50;63.10
7307;DHT22;3694;48.732;9.248;2023-07-16T17:55:09;22.60;62.80
7307;DHT22;3694;48.732;9.248;2023-07-16T17:57:35;22.50;62.80
7307;DHT22;3694;48.732;9.248;2023-07-16T18:00:01;22.50;63.50
7307;DHT22;3694;48.732;9.248;2023-07-16T18:02:27;22.40;63.40
7307;DHT22;3694;48.732;9.248;2023-07-16T18:04:52;22.40;62.90
7307;DHT22;3694;48.732;9.248;2023-07-16T18:07:20;22.40;62.30
7307;DHT22;3694;48.732;9.248;2023-07-16T18:09:47;22.30;62.90
7307;DHT22;3694;48.732;9.248;2023-07-16T18:12:15;22.30;62.70
7307;DHT22;3694;48.732;9.248;2023-07-16T18:14:41;22.30;63.30
7307;DHT22;3694;48.732;9.248;2023-07-16T18:17:07;22.10;63.40
7307;DHT22;3694;48.732;9.248;2023-07-16T18:19:32;22.10;63.40
7307;DHT22;3694;48.732;9.248;2023-07-16T18:21:59;22.10;63.90
7307;DHT22;3694;48.732;9.248;2023-07-16T18:24:24;22.00;63.40
7307;DHT22;3694;48.732;9.248;2023-07-16T18:26:50;22.00;63.20
7307;DHT22;3694;48.732;9.248;2023-07-16T18:29:16;21.90;63.00
7307;DHT22;3694;48.732;9.248;2023-07-16T18:31:42;21.90;62.70
7307;DHT22;3694;48.732;9.248;2023-07-16T18:34:07;21.80;63.40
7307;DHT22;3694;48.732;9.248;2023-07-16T18:36:33;21.80;64.10
7307;DHT22;3694;48.732;9.248;2023-07-16T18:38:58;21.60;64.10
7307;DHT22;3694;48.732;9.248;2023-07-16T18:41:24;21.40;63.10
7307;DHT22;3694;48.732;9.248;2023-07-16T18:43:49;21.40;63.70
7307;DHT22;3694;48.732;9.248;2023-07-16T18:46:15;21.30;63.50
7307;DHT22;3694;48.732;9.248;2023-07-16T18:48:41;21.10;63.80
7307;DHT22;3694;48.732;9.248;2023-07-16T18:51:07;21.20;64.50
7307;DHT22;3694;48.732;9.248;2023-07-16T18:53:32;21.10;64.40
7307;DHT22;3694;48.732;9.248;2023-07-16T18:56:00;20.90;65.90
7307;DHT22;3694;48.732;9.248;2023-07-16T18:58:26;20.80;66.10
7307;DHT22;3694;48.732;9.248;2023-07-16T19:00:52;20.70;65.80
7307;DHT22;3694;48.732;9.248;2023-07-16T19:03:18;20.60;65.10
7307;DHT22;3694;48.732;9.248;2023-07-16T19:05:44;20.50;66.20
7307;DHT22;3694;48.732;9.248;2023-07-16T19:08:10;20.50;66.80
7307;DHT22;3694;48.732;9.248;2023-07-16T19:10:35;20.40;67.00
7307;DHT22;3694;48.732;9.248;2023-07-16T19:13:03;20.10;67.60
7307;DHT22;3694;48.732;9.248;2023-07-16T19:15:29;20.00;68.30
7307;DHT22;3694;48.732;9.248;2023-07-16T19:17:55;19.90;69.20
7307;DHT22;3694;48.732;9.248;2023-07-16T19:20:20;19.60;69.30
7307;DHT22;3694;48.732;9.248;2023-07-16T19:22:46;19.60;70.20
7307;DHT22;3694;48.732;9.248;2023-07-16T19:25:11;19.50;70.30
7307;DHT22;3694;48.732;9.248;2023-07-16T19:27:37;19.50;71.50
7307;DHT22;3694;48.732;9.248;2023-07-16T19:30:03;19.50;71.80
7307;DHT22;3694;48.732;9.248;2023-07-16T19:32:29;19.50;72.90
7307;DHT22;3694;48.732;9.248;2023-07-16T19:34:55;19.50;74.10
7307;DHT22;3694;48.732;9.248;2023-07-16T19:37:20;19.50;74.60
7307;DHT22;3694;48.732;9.248;2023-07-16T19:39:46;19.50;75.30
7307;DHT22;3694;48.732;9.248;2023-07-16T19:42:12;19.50;76.40
7307;DHT22;3694;48.732;9.248;2023-07-16T19:44:37;19.40;77.40
7307;DHT22;3694;48.732;9.248;2023-07-16T19:47:04;19.40;78.30
7307;DHT22;3694;48.732;9.248;2023-07-16T19:49:30;19.40;79.30
7307;DHT22;3694;48.732;9.248;2023-07-16T19:51:56;19.30;80.30
7307;DHT22;3694;48.732;9.248;2023-07-16T19:54:22;19.30;78.30
7307;DHT22;3694;48.732;9.248;2023-07-16T19:56:47;19.10;79.30
7307;DHT22;3694;48.732;9.248;2023-07-16T19:59:13;19.40;78.00
7307;DHT22;3694;48.732;9.248;2023-07-16T20:01:39;19.30;77.20
7307;DHT22;3694;48.732;9.248;2023-07-16T20:04:04;19.20;79.10
7307;DHT22;3694;48.732;9.248;2023-07-16T20:06:30;19.30;77.90
7307;DHT22;3694;48.732;9.248;2023-07-16T20:08:56;19.30;80.20
7307;DHT22;3694;48.732;9.248;2023-07-16T20:11:22;19.20;82.10
7307;DHT22;3694;48.732;9.248;2023-07-16T20:13:47;19.10;81.30
7307;DHT22;3694;48.732;9.248;2023-07-16T20:16:14;19.10;81.90
7307;DHT22;3694;48.732;9.248;2023-07-16T20:18:40;19.00;82.70
7307;DHT22;3694;48.732;9.248;2023-07-16T20:21:06;19.00;84.40
7307;DHT22;3694;48.732;9.248;2023-07-16T20:23:33;19.00;86.10
7307;DHT22;3694;48.732;9.248;2023-07-16T20:25:59;18.90;87.40
7307;DHT22;3694;48.732;9.248;2023-07-16T20:28:25;19.00;89.40
7307;DHT22;3694;48.732;9.248;2023-07-16T20:30:51;19.00;90.70
7307;DHT22;3694;48.732;9.248;2023-07-16T20:33:18;18.90;90.00
7307;DHT22;3694;48.732;9.248;2023-07-16T20:35:44;18.90;90.60
7307;DHT22;3694;48.732;9.248;2023-07-16T20:38:09;18.90;90.70
7307;DHT22;3694;48.732;9.248;2023-07-16T20:40:35;18.80;91.20
7307;DHT22;3694;48.732;9.248;2023-07-16T20:43:02;19.10;91.20
7307;DHT22;3694;48.732;9.248;2023-07-16T20:45:29;18.80;91.80
7307;DHT22;3694;48.732;9.248;2023-07-16T20:47:58;18.80;92.30
7307;DHT22;3694;48.732;9.248;2023-07-16T20:50:25;18.80;93.00
7307;DHT22;3694;48.732;9.248;2023-07-16T20:52:56;18.70;93.10
7307;DHT22;3694;48.732;9.248;2023-07-16T20:55:23;18.60;92.30
7307;DHT22;3694;48.732;9.248;2023-07-16T20:57:50;18.60;92.70
7307;DHT22;3694;48.732;9.248;2023-07-16T21:00:16;18.60;94.20
7307;DHT22;3694;48.732;9.248;2023-07-16T21:02:44;18.50;95.10
7307;DHT22;3694;48.732;9.248;2023-07-16T21:05:10;18.50;93.70
7307;DHT22;3694;48.732;9.248;2023-07-16T21:07:36;18.60;94.80
7307;DHT22;3694;48.732;9.248;2023-07-16T21:10:03;18.50;95.70
7307;DHT22;3694;48.732;9.248;2023-07-16T21:12:29;18.30;95.80
7307;DHT22;3694;48.732;9.248;2023-07-16T21:14:55;18.20;96.10
7307;DHT22;3694;48.732;9.248;2023-07-16T21:17:22;18.20;96.80
7307;DHT22;3694;48.732;9.248;2023-07-16T21:19:49;18.00;96.50
7307;DHT22;3694;48.732;9.248;2023-07-16T21:22:14;18.00;97.10
7307;DHT22;3694;48.732;9.248;2023-07-16T21:24:39;17.90;97.60
7307;DHT22;3694;48.732;9.248;2023-07-16T21:27:07;17.90;96.90
7307;DHT22;3694;48.732;9.248;2023-07-16T21:29:33;18.00;97.50
7307;DHT22;3694;48.732;9.248;2023-07-16T21:31:59;17.90;97.70
7307;DHT22;3694;48.732;9.248;2023-07-16T21:34:24;18.10;98.60
7307;DHT22;3694;48.732;9.248;2023-07-16T21:36:50;18.00;99.30
7307;DHT22;3694;48.732;9.248;2023-07-16T21:39:15;18.10;98.10
7307;DHT22;3694;48.732;9.248;2023-07-16T21:41:41;18.10;96.70
7307;DHT22;3694;48.732;9.248;2023-07-16T21:44:06;18.30;95.10
7307;DHT22;3694;48.732;9.248;2023-07-16T21:46:32;18.40;94.40
7307;DHT22;3694;48.732;9.248;2023-07-16T21:48:57;18.50;93.90
7307;DHT22;3694;48.732;9.248;2023-07-16T21:51:23;18.50;94.80
7307;DHT22;3694;48.732;9.248;2023-07-16T21:53:49;18.50;95.00
7307;DHT22;3694;48.732;9.248;2023-07-16T21:56:16;18.30;95.30
7307;DHT22;3694;48.732;9.248;2023-07-16T21:58:41;18.10;96.20
7307;DHT22;3694;48.732;9.248;2023-07-16T22:01:07;18.00;96.90
7307;DHT22;3694;48.732;9.248;2023-07-16T22:03:32;17.90;97.30
7307;DHT22;3694;48.732;9.248;2023-07-16T22:05:58;17.80;96.70
7307;DHT22;3694;48.732;9.248;2023-07-16T22:08:23;17.70;96.60
7307;DHT22;3694;48.732;9.248;2023-07-16T22:10:49;17.70;97.00
7307;DHT22;3694;48.732;9.248;2023-07-16T22:13:16;17.80;96.60
7307;DHT22;3694;48.732;9.248;2023-07-16T22:15:42;17.90;96.70
7307;DHT22;3694;48.732;9.248;2023-07-16T22:18:07;17.80;96.90
7307;DHT22;3694;48.732;9.248;2023-07-16T22:20:33;17.90;96.80
7307;DHT22;3694;48.732;9.248;2023-07-16T22:22:59;17.90;97.10
7307;DHT22;3694;48.732;9.248;2023-07-16T22:25:25;17.90;97.10
7307;DHT22;3694;48.732;9.248;2023-07-16T22:27:53;17.80;97.40
7307;DHT22;3694;48.732;9.248;2023-07-16T22:30:19;17.60;98.40
7307;DHT22;3694;48.732;9.248;2023-07-16T22:32:44;17.40;98.40
7307;DHT22;3694;48.732;9.248;2023-07-16T22:35:10;17.30;99.20
7307;DHT22;3694;48.732;9.248;2023-07-16T22:37:36;17.20;99.90
7307;DHT22;3694;48.732;9.248;2023-07-16T22:40:01;16.90;99.90
7307;DHT22;3694;48.732;9.248;2023-07-16T22:42:28;16.90;99.90
7307;DHT22;3694;48.732;9.248;2023-07-16T22:44:54;16.80;99.90
7307;DHT22;3694;48.732;9.248;2023-07-16T22:47:19;16.80;99.90
7307;DHT22;3694;48.732;9.248;2023-07-16T22:49:45;16.70;99.90
7307;DHT22;3694;48.732;9.248;2023-07-16T22:52:10;16.70;99.90
7307;DHT22;3694;48.732;9.248;2023-07-16T22:54:36;16.70;99.90
7307;DHT22;3694;48.732;9.248;2023-07-16T22:57:08;16.70;99.90
7307;DHT22;3694;48.732;9.248;2023-07-16T22:59:34;16.70;99.90
7307;DHT22;3694;48.732;9.248;2023-07-16T23:01:59;16.70;99.90
7307;DHT22;3694;48.732;9.248;2023-07-16T23:04:25;16.70;99.90
7307;DHT22;3694;48.732;9.248;2023-07-16T23:06:54;16.80;99.90
7307;DHT22;3694;48.732;9.248;2023-07-16T23:09:22;16.80;99.90
7307;DHT22;3694;48.732;9.248;2023-07-16T23:11:48;16.70;99.90
7307;DHT22;3694;48.732;9.248;2023-07-16T23:14:14;16.60;99.90
7307;DHT22;3694;48.732;9.248;2023-07-16T23:16:39;16.50;99.90
7307;DHT22;3694;48.732;9.248;2023-07-16T23:19:05;16.50;99.90
7307;DHT22;3694;48.732;9.248;2023-07-16T23:21:31;16.40;99.90
7307;DHT22;3694;48.732;9.248;2023-07-16T23:23:56;16.40;99.90
7307;DHT22;3694;48.732;9.248;2023-07-16T23:26:22;16.30;99.90
7307;DHT22;3694;48.732;9.248;2023-07-16T23:28:48;16.30;99.90
7307;DHT22;3694;48.732;9.248;2023-07-16T23:31:14;16.30;99.90
7307;DHT22;3694;48.732;9.248;2023-07-16T23:33:40;16.40;99.90
7307;DHT22;3694;48.732;9.248;2023-07-16T23:36:06;16.50;99.90
7307;DHT22;3694;48.732;9.248;2023-07-16T23:38:32;16.50;99.90
7307;DHT22;3694;48.732;9.248;2023-07-16T23:40:57;16.80;99.90
7307;DHT22;3694;48.732;9.248;2023-07-16T23:43:23;16.60;99.90
7307;DHT22;3694;48.732;9.248;2023-07-16T23:45:49;16.70;99.90
7307;DHT22;3694;48.732;9.248;2023-07-16T23:48:15;16.50;99.90
7307;DHT22;3694;48.732;9.248;2023-07-16T23:50:40;16.50;99.90
7307;DHT22;3694;48.732;9.248;2023-07-16T23:53:06;16.50;99.90
7307;DHT22;3694;48.732;9.248;2023-07-16T23:55:32;16.60;99.90
7307;DHT22;3694;48.732;9.248;2023-07-16T23:57:58;16.60;99.90
